OIIS  Semnan  Airport

Semnan, Iran

Add Bookmark
ICAO OIIS
Type Airport
Status Operational
Latitude
35° 35' 27" N
35.591099
Longitude
53° 29' 42" E
53.495098
Local (GMT +4.5 ) UTC
Jul 28, 2016 02:56 pm Jul 28, 2016 10:26
Sunrise-Sunset Local UTC
Begin Civil Twilight 05:31 am 01:01
Sunrise 06:00 am 01:30
Sunset 08:04 pm 15:34
End Civil Twilight 08:33 pm 16:03
VFR
VFR
MVFR
MVFR
IFR
IFR
LIFR
LIFR
Unknown
Unavailable

Current Weather

METAR Observed VFR
OIIS 141900Z 05004KT CAVOK 29/05 Q1015 Thu, Jul 14, 2016 @ 19:00 UTC
(1 Week, 6 Days, 15 Hours, 26 Minutes ago)
Visual Flight Rules
Wind Visibility Conditions
050° at 4 knots (7 kph) 10 km or more
  • No significant weather
Temperatures Readings Precipitation
Current Temp
29°C
84°F
Dewpoint
5°C
41°F
Humidity 22%
Altimeter 29.97" Hg
Sea Level Pressure 1,015 mb
Field Elevation
1,115 m
3,658 ft
None Recorded
-
-

CheckWX.com is intended as a tool to help pilots better visualize weather data. It is not intended as a substitute for an official weather briefing obtained from a Flight Service Station. CheckWX.com does not meet the FAA requirements for an official pre-flight weather briefing. Therefore, it's important that pilots still call and obtain an official FSS pre-flight weather briefing.

© 2007-2016 CheckWX.com
10:26:16 UTC